Winslow Lindbergh Regional Airport
KINW : now visible

Airfield :











YOU CAN JOIN US ON...

 
LOGIN :

Register | Disclaimer

   EN    FR    IT 

 









Legend :    VFR   Marginal VFR   IFR   Intensive IFR   Very Intensive IFR
Visi :
Ceiling :
>= 8 km
>= 3000ft
5 to 8 km
1000 to 3000 ft
1500m to 5 km
500 to 1000 ft
800 to 1500m
200 to 500 ft
< 800m
< 200 ft
Symbols :   Thunderstorms  Fog  Heavy snow  Heavy precipitations  Wind > 20 kt






- Airport Elevation : 4941 ft


KINW - Winslow Lindbergh Regional

CURRENT METAR :
  • 202156Z AUTO 14004KT 10SM CLR 08/M05 A3026 RMK AO2 SLP248 T00781050

EXPIRED METARs :
  • 202056Z AUTO 12003KT 10SM CLR 07/M05 A3027 RMK AO2 SLP252 T00721050 56028
  • 201956Z AUTO VRB03KT 10SM CLR 07/M05 A3030 RMK AO2 SLP265 T00671050

TAF KINW
Valid from the 20 at 18:00 until the 21 at 18:00 UTC


201720Z 2018/2118 VRB06KT P6SM BKN120
FM210600 VRB05KT P6SM VCSH BKN035 OVC050
FM211000 VRB05KT 5SM -SHRA BKN020 OVC030



MET'MAP, your aeronautical weather chart ! - Copyright ORBIFLY December 2007 - Disclaimer

ORBIFLY MET'MAP TEAM :

Programming & Development : Alexandra Zaïnal
Concept & original design : Baudouin d'Aumeries
Assistance for programming : Marc-Olivier Méhu
Technical & hardware support : Manuel Goepfert

Contact : metmap@orbifly.com




SOURCES & CREDITS :

   NOAA       Earth
Advisory